createdAt,value
2019-04-11T00:00:46.453Z,97815.16
2019-04-11T00:03:15.829Z,97818.27
2019-04-11T00:05:45.427Z,97819.33
2019-04-11T00:08:14.803Z,97819.16
2019-04-11T00:10:45.064Z,97823.42
2019-04-11T00:13:21.567Z,97823.47
2019-04-11T00:15:46.079Z,97821.80
2019-04-11T00:18:16.571Z,97827.18
2019-04-11T00:20:46.476Z,97827.18
2019-04-11T00:23:16.268Z,97825.05
2019-04-11T00:25:45.716Z,97830.69
2019-04-11T00:28:15.409Z,97830.17
2019-04-11T00:30:45.106Z,97826.95
2019-04-11T00:33:14.460Z,97821.02
2019-04-11T00:35:44.005Z,97821.27
2019-04-11T00:38:13.922Z,97829.89
2019-04-11T00:40:43.778Z,97829.37
2019-04-11T00:43:13.411Z,97832.88
2019-04-11T00:45:43.573Z,97832.29
2019-04-11T00:48:13.352Z,97830.17
2019-04-11T00:50:43.343Z,97828.30
2019-04-11T00:53:13.874Z,97834.19
2019-04-11T00:55:43.902Z,97833.38
2019-04-11T00:58:13.750Z,97834.70
2019-04-11T01:00:43.223Z,97844.38
2019-04-11T01:03:13.734Z,97840.38
2019-04-11T01:05:43.280Z,97838.75
2019-04-11T01:08:13.707Z,97843.06
2019-04-11T01:10:43.577Z,97840.64
2019-04-11T01:13:14.224Z,97839.59
2019-04-11T01:15:50.479Z,97840.66
2019-04-11T01:18:20.780Z,97840.93
2019-04-11T01:20:51.434Z,97840.38
2019-04-11T01:23:20.997Z,97846.02
2019-04-11T01:25:50.631Z,97846.02
2019-04-11T01:28:20.685Z,97848.13
2019-04-11T01:31:01.097Z,97846.02
2019-04-11T01:33:31.741Z,97852.70
2019-04-11T01:36:01.180Z,97848.70
2019-04-11T01:38:32.493Z,97851.09
2019-04-11T01:41:02.442Z,97846.28
2019-04-11T01:43:32.448Z,97850.53
2019-04-11T01:46:02.177Z,97854.32
2019-04-11T01:48:39.715Z,97853.19
2019-04-11T01:51:09.675Z,97859.59
2019-04-11T01:53:39.475Z,97863.34
2019-04-11T01:56:10.171Z,97872.46
2019-04-11T01:58:40.574Z,97870.03
2019-04-11T02:01:38.996Z,97870.56
2019-04-11T02:04:14.558Z,97872.15
2019-04-11T02:06:43.953Z,97866.52
2019-04-11T02:09:15.841Z,97866.53
2019-04-11T02:11:45.784Z,97878.30
2019-04-11T02:14:16.941Z,97879.36
2019-04-11T02:16:47.390Z,97875.09
2019-04-11T02:19:16.926Z,97872.13
2019-04-11T02:21:46.438Z,97879.59
2019-04-11T02:24:32.492Z,97874.01
2019-04-11T02:27:14.848Z,97874.50
2019-04-11T02:29:44.811Z,97881.19
2019-04-11T02:32:15.734Z,97876.10
2019-04-11T02:34:46.082Z,97879.60
2019-04-11T02:37:17.338Z,97887.30
2019-04-11T02:39:47.280Z,97885.44
2019-04-11T02:42:18.858Z,97886.77
2019-04-11T02:45:05.895Z,97890.00
2019-04-11T02:47:24.837Z,97895.31
2019-04-11T02:49:51.835Z,97895.31
2019-04-11T02:52:22.614Z,97888.39
2019-04-11T02:54:52.800Z,97892.14
2019-04-11T02:57:23.527Z,97895.30
2019-04-11T02:59:53.878Z,97897.40
2019-04-11T03:02:26.624Z,97899.50
2019-04-11T03:04:56.583Z,97904.87
2019-04-11T03:07:26.482Z,97913.76
2019-04-11T03:09:56.783Z,97915.06
2019-04-11T03:12:27.518Z,97908.65
2019-04-11T03:15:16.485Z,97908.78
2019-04-11T03:17:34.085Z,97912.55
2019-04-11T03:20:13.173Z,97914.92
2019-04-11T03:22:32.205Z,97913.63
2019-04-11T03:25:03.163Z,97917.66
2019-04-11T03:27:34.899Z,97920.11
2019-04-11T03:30:09.971Z,97920.84
2019-04-11T03:33:34.804Z,97917.66
2019-04-11T03:36:01.135Z,97927.55
2019-04-11T03:37:58.608Z,97928.31
2019-04-11T03:40:30.505Z,97924.23
2019-04-11T03:42:59.837Z,97933.56
2019-04-11T03:45:36.407Z,97933.34
2019-04-11T03:48:02.450Z,97936.33
2019-04-11T03:50:23.161Z,97933.61
2019-04-11T03:52:53.722Z,97936.28
2019-04-11T03:55:23.379Z,97935.75
2019-04-11T03:57:56.005Z,97941.80
2019-04-11T04:00:29.875Z,97942.16
2019-04-11T04:02:57.540Z,97938.91
2019-04-11T04:05:30.178Z,97943.77
2019-04-11T04:08:00.154Z,97942.47
2019-04-11T04:10:31.770Z,97937.39
2019-04-11T04:13:03.244Z,97946.91
2019-04-11T04:16:04.044Z,97946.33
2019-04-11T04:18:38.081Z,97952.22
2019-04-11T04:21:35.893Z,97951.50
2019-04-11T04:24:27.443Z,97947.56
2019-04-11T04:26:59.639Z,97955.63
2019-04-11T04:29:31.814Z,97959.69
2019-04-11T04:32:02.893Z,97956.42
2019-04-11T04:34:33.844Z,97963.42
2019-04-11T04:37:05.696Z,97963.47
2019-04-11T04:39:36.874Z,97971.06
2019-04-11T04:42:14.401Z,97970.25
2019-04-11T04:44:38.093Z,97969.45
2019-04-11T04:47:18.040Z,97968.66
2019-04-11T04:49:40.742Z,97974.80
2019-04-11T04:52:12.360Z,97973.98
2019-04-11T04:54:41.227Z,97976.98
2019-04-11T04:57:13.129Z,97980.45
2019-04-11T04:59:42.522Z,97982.84
2019-04-11T05:02:12.829Z,97981.41
2019-04-11T05:04:43.637Z,97975.33
2019-04-11T05:07:13.288Z,97982.05
2019-04-11T05:09:43.046Z,97983.12
2019-04-11T05:12:13.816Z,97983.66
2019-04-11T05:14:43.535Z,97982.05
2019-04-11T05:17:13.014Z,97977.52
2019-04-11T05:19:42.504Z,97986.44
2019-04-11T05:22:12.624Z,97986.17
2019-04-11T05:24:43.378Z,97986.11
2019-04-11T05:27:12.817Z,97988.98
2019-04-11T05:29:42.203Z,97990.13
2019-04-11T05:32:11.588Z,97991.83
2019-04-11T05:34:41.443Z,97989.54
2019-04-11T05:37:11.172Z,97990.86
2019-04-11T05:39:41.386Z,97990.22
2019-04-11T05:42:15.885Z,97992.30
2019-04-11T05:44:43.261Z,97995.52
2019-04-11T05:47:18.119Z,97991.13
2019-04-11T05:49:56.783Z,97995.19
2019-04-11T05:52:28.910Z,97995.78
2019-04-11T05:55:00.827Z,97998.30
2019-04-11T05:57:35.215Z,98000.52
2019-04-11T06:00:01.440Z,98003.47
2019-04-11T06:02:41.473Z,98004.84
2019-04-11T06:05:23.816Z,98000.74
2019-04-11T06:07:57.676Z,98000.33
2019-04-11T06:10:34.193Z,97999.27
2019-04-11T06:13:25.337Z,98004.58
2019-04-11T06:15:59.490Z,98004.97
2019-04-11T06:18:43.152Z,98005.33
2019-04-11T06:21:24.450Z,98002.21
2019-04-11T06:24:14.079Z,98007.29
2019-04-11T06:26:47.043Z,98012.89
2019-04-11T06:29:26.410Z,98015.64
2019-04-11T06:32:13.856Z,98018.63
2019-04-11T06:34:49.273Z,98017.71
2019-04-11T06:37:41.351Z,98024.88
2019-04-11T06:40:21.318Z,98025.44
2019-04-11T06:42:56.933Z,98026.87
2019-04-11T06:45:44.158Z,98023.95
2019-04-11T06:48:29.699Z,98031.69
2019-04-11T06:51:04.413Z,98026.36
2019-04-11T06:53:40.629Z,98031.42
2019-04-11T06:56:27.380Z,98034.63
2019-04-11T06:59:01.655Z,98039.64
2019-04-11T07:01:31.543Z,98039.16
2019-04-11T07:04:07.477Z,98042.64
2019-04-11T07:06:39.871Z,98040.82
2019-04-11T07:09:28.697Z,98036.82
2019-04-11T07:12:05.626Z,98032.05
2019-04-11T07:14:55.050Z,98039.02
2019-04-11T07:17:43.736Z,98039.28
2019-04-11T07:20:31.562Z,98039.00
2019-04-11T07:23:20.047Z,98039.56
2019-04-11T07:26:00.289Z,98038.48
2019-04-11T07:28:54.523Z,98044.63
2019-04-11T07:31:41.771Z,98039.28
2019-04-11T07:34:37.755Z,98033.12
2019-04-11T07:37:26.010Z,98038.48
2019-04-11T07:40:17.914Z,98036.83
2019-04-11T07:43:05.774Z,98034.42
2019-04-11T07:45:53.710Z,98038.38
2019-04-11T07:48:27.453Z,98034.84
2019-04-11T07:50:59.717Z,98036.70
2019-04-11T07:53:30.838Z,98040.44
2019-04-11T07:56:03.299Z,98045.24
2019-04-11T07:58:42.073Z,98035.81
2019-04-11T08:01:40.429Z,98041.69
2019-04-11T08:04:36.512Z,98039.52
2019-04-11T08:07:26.022Z,98037.13
2019-04-11T08:10:13.641Z,98036.49
2019-04-11T08:12:47.987Z,98043.52
2019-04-11T08:15:53.744Z,98042.58
2019-04-11T08:18:37.585Z,98036.63
2019-04-11T08:21:26.170Z,98036.63
2019-04-11T08:24:00.312Z,98045.23
2019-04-11T08:26:50.471Z,98036.58
2019-04-11T08:29:22.220Z,98034.69
2019-04-11T08:32:17.884Z,98034.48
2019-04-11T08:34:56.599Z,98036.25
2019-04-11T08:37:41.474Z,98029.72
2019-04-11T08:40:11.839Z,98030.94
2019-04-11T08:43:12.930Z,98030.94
2019-04-11T08:45:48.520Z,98034.19
2019-04-11T08:48:19.238Z,98034.19
2019-04-11T08:50:54.582Z,98038.88
2019-04-11T08:53:46.961Z,98035.96
2019-04-11T08:56:17.475Z,98039.02
2019-04-11T08:59:35.800Z,98030.77
2019-04-11T09:02:06.913Z,98022.58
2019-04-11T09:05:06.944Z,98022.58
2019-04-11T09:07:35.938Z,98035.45
2019-04-11T09:10:24.218Z,98035.45
2019-04-11T09:13:11.243Z,98031.53
2019-04-11T09:15:59.444Z,98026.33
2019-04-11T09:18:30.636Z,98042.35
2019-04-11T09:21:20.283Z,98037.31
2019-04-11T09:23:50.685Z,98040.30
2019-04-11T09:26:38.301Z,98039.73
2019-04-11T09:29:08.632Z,98037.61
2019-04-11T09:32:09.994Z,98035.77
2019-04-11T09:34:50.244Z,98039.98
2019-04-11T09:37:39.903Z,98035.20
2019-04-11T09:40:39.522Z,98036.26
2019-04-11T09:43:20.068Z,98041.36
2019-04-11T09:46:08.131Z,98042.88
2019-04-11T09:49:06.679Z,98036.72
2019-04-11T09:51:54.154Z,98027.89
2019-04-11T09:54:54.830Z,98026.60
2019-04-11T09:57:27.183Z,98030.56
2019-04-11T10:00:22.872Z,98032.11
2019-04-11T10:03:06.618Z,98030.56
2019-04-11T10:06:01.362Z,98028.65
2019-04-11T10:08:39.589Z,98024.20
2019-04-11T10:11:34.568Z,98032.81
2019-04-11T10:14:29.405Z,98025.54
2019-04-11T10:17:16.970Z,98026.39
2019-04-11T10:19:52.244Z,98025.81
2019-04-11T10:22:40.392Z,98027.34
2019-04-11T10:25:14.931Z,98024.98
2019-04-11T10:28:07.147Z,98019.13
2019-04-11T10:30:55.721Z,98016.28
2019-04-11T10:33:59.543Z,98026.69
2019-04-11T10:36:51.585Z,98028.12
2019-04-11T10:39:55.021Z,98027.92
2019-04-11T10:42:27.102Z,98028.95
2019-04-11T10:45:24.874Z,98030.41
2019-04-11T10:47:57.697Z,98022.55
2019-04-11T10:50:46.533Z,98025.89
2019-04-11T10:53:16.702Z,98031.81
2019-04-11T10:56:10.474Z,98037.98
2019-04-11T10:58:44.812Z,98041.34
2019-04-11T11:01:31.886Z,98037.15
2019-04-11T11:04:07.595Z,98032.50
2019-04-11T11:06:37.934Z,98031.40
2019-04-11T11:09:26.197Z,98032.83
2019-04-11T11:12:08.696Z,98036.38
2019-04-11T11:14:56.225Z,98029.95
2019-04-11T11:18:05.563Z,98038.66
2019-04-11T11:20:39.921Z,98040.86
2019-04-11T11:23:31.637Z,98029.81
2019-04-11T11:26:22.758Z,98024.89
2019-04-11T11:29:11.948Z,98027.35
2019-04-11T11:31:57.875Z,98022.94
2019-04-11T11:34:34.783Z,98024.11
2019-04-11T11:37:35.891Z,98013.66
2019-04-11T11:40:24.210Z,98025.63
2019-04-11T11:43:27.974Z,98028.19
2019-04-11T11:46:17.838Z,98033.00
2019-04-11T11:48:54.187Z,98014.73
2019-04-11T11:51:31.159Z,98029.25
2019-04-11T11:54:16.040Z,98029.42
2019-04-11T11:56:48.637Z,98025.51
2019-04-11T11:59:27.372Z,98033.80
2019-04-11T12:02:04.393Z,98030.62
2019-04-11T12:04:57.555Z,98027.77
2019-04-11T12:07:37.735Z,98028.79
2019-04-11T12:10:34.019Z,98024.83
2019-04-11T12:13:26.505Z,98030.73
2019-04-11T12:16:19.032Z,98022.91
2019-04-11T12:19:21.346Z,98028.58
2019-04-11T12:21:51.825Z,98018.75
2019-04-11T12:24:44.939Z,98016.77
2019-04-11T12:27:33.055Z,98014.95
2019-04-11T12:30:20.850Z,98006.73
2019-04-11T12:33:07.056Z,98006.98
2019-04-11T12:35:50.782Z,98008.00
2019-04-11T12:38:31.413Z,98009.20
2019-04-11T12:41:23.799Z,98002.82
2019-04-11T12:44:11.561Z,98006.78
2019-04-11T12:47:15.681Z,98017.72
2019-04-11T12:50:03.113Z,98018.67
2019-04-11T12:52:50.350Z,98022.59
2019-04-11T12:55:26.904Z,98016.56
2019-04-11T12:58:07.582Z,98017.71
2019-04-11T13:00:59.614Z,98022.97
2019-04-11T13:04:06.734Z,98021.41
2019-04-11T13:06:49.119Z,98019.37
2019-04-11T13:09:30.889Z,98009.08
2019-04-11T13:12:01.679Z,98017.13
2019-04-11T13:14:40.151Z,98015.68
2019-04-11T13:17:13.223Z,98019.80
2019-04-11T13:20:04.931Z,98030.71
2019-04-11T13:22:33.404Z,98022.92
2019-04-11T13:25:20.449Z,98015.39
2019-04-11T13:27:53.259Z,98009.18
2019-04-11T13:30:41.492Z,98006.39
2019-04-11T13:33:18.160Z,98000.21
2019-04-11T13:36:07.432Z,97993.34
2019-04-11T13:38:48.298Z,98000.83
2019-04-11T13:41:49.354Z,97992.77
2019-04-11T13:44:32.029Z,97998.76
2019-04-11T13:47:20.205Z,97998.95
2019-04-11T13:49:58.716Z,97995.56
2019-04-11T13:52:56.483Z,98005.74
2019-04-11T13:55:28.645Z,98022.34
2019-04-11T13:58:17.934Z,98019.91
2019-04-11T14:00:55.836Z,98022.17
2019-04-11T14:03:45.411Z,98017.38
2019-04-11T14:06:27.842Z,98018.05
2019-04-11T14:09:11.361Z,98007.48
2019-04-11T14:11:48.750Z,98005.23
2019-04-11T14:14:24.380Z,98001.48
2019-04-11T14:17:12.593Z,97999.48
2019-04-11T14:20:00.671Z,98006.44
2019-04-11T14:22:36.543Z,98000.89
2019-04-11T14:25:31.445Z,98001.67
2019-04-11T14:28:02.730Z,97995.55
2019-04-11T14:30:39.768Z,98001.80
2019-04-11T14:33:09.839Z,98006.83
2019-04-11T14:35:57.674Z,98003.43
2019-04-11T14:38:27.292Z,98000.84
2019-04-11T14:41:15.587Z,97999.36
2019-04-11T14:43:53.381Z,98007.05
2019-04-11T14:46:41.308Z,98006.91
2019-04-11T14:49:16.022Z,98009.20
2019-04-11T14:52:08.076Z,98011.44
2019-04-11T14:54:40.154Z,98011.44
2019-04-11T14:57:23.305Z,98018.98
2019-04-11T15:00:08.309Z,98013.28
2019-04-11T15:02:47.523Z,98006.89
2019-04-11T15:05:29.221Z,98010.75
2019-04-11T15:07:59.225Z,98011.22
2019-04-11T15:10:52.530Z,98015.02
2019-04-11T15:13:25.287Z,98006.23
2019-04-11T15:16:13.601Z,98005.48
2019-04-11T15:18:48.764Z,98007.24
2019-04-11T15:21:37.097Z,98009.17
2019-04-11T15:24:07.637Z,98005.20
2019-04-11T15:27:02.315Z,98011.86
2019-04-11T15:29:34.330Z,98013.08
2019-04-11T15:32:17.599Z,98022.34
2019-04-11T15:34:52.702Z,98024.64
2019-04-11T15:37:38.810Z,98027.67
2019-04-11T15:40:13.068Z,98019.38
2019-04-11T15:43:00.435Z,98023.94
2019-04-11T15:45:52.240Z,98034.47
2019-04-11T15:48:39.789Z,98031.45
2019-04-11T15:51:21.150Z,98035.01
2019-04-11T15:54:28.217Z,98028.07
2019-04-11T15:57:16.738Z,98035.55
2019-04-11T16:00:07.850Z,98029.81
2019-04-11T16:02:47.947Z,98033.00
2019-04-11T16:05:48.687Z,98033.48
2019-04-11T16:08:43.927Z,98034.88
2019-04-11T16:11:38.369Z,98032.41
2019-04-11T16:14:28.016Z,98043.20
2019-04-11T16:17:34.513Z,98033.05
2019-04-11T16:20:19.400Z,98036.11
2019-04-11T16:23:10.822Z,98044.25
2019-04-11T16:25:43.391Z,98038.77
2019-04-11T16:28:30.790Z,98047.09
2019-04-11T16:31:00.839Z,98038.48
2019-04-11T16:33:49.158Z,98045.75
2019-04-11T16:36:31.908Z,98038.69
2019-04-11T16:39:20.564Z,98042.09
2019-04-11T16:42:15.041Z,98053.11
2019-04-11T16:45:12.506Z,98052.52
2019-04-11T16:47:59.754Z,98052.44
2019-04-11T16:50:29.146Z,98049.73
2019-04-11T16:52:58.665Z,98052.20
2019-04-11T16:55:28.369Z,98057.30
2019-04-11T16:57:57.859Z,98053.19
2019-04-11T17:00:27.683Z,98056.12
2019-04-11T17:02:57.055Z,98070.38
2019-04-11T17:05:27.058Z,98062.63
2019-04-11T17:08:14.065Z,98065.97
2019-04-11T17:11:05.663Z,98072.82
2019-04-11T17:13:35.052Z,98071.28
2019-04-11T17:16:06.875Z,98075.98
2019-04-11T17:18:36.282Z,98069.11
2019-04-11T17:21:07.762Z,98076.70
2019-04-11T17:23:36.894Z,98079.37
2019-04-11T17:26:06.911Z,98078.86
2019-04-11T17:28:36.997Z,98078.61
2019-04-11T17:31:06.503Z,98081.58
2019-04-11T17:33:36.016Z,98088.25
2019-04-11T17:36:05.672Z,98088.16
2019-04-11T17:38:37.250Z,98090.25
2019-04-11T17:41:06.242Z,98096.69
2019-04-11T17:43:35.808Z,98095.23
2019-04-11T17:46:05.379Z,98103.02
2019-04-11T17:48:34.755Z,98111.36
2019-04-11T17:51:05.195Z,98113.53
2019-04-11T17:53:35.131Z,98119.09
2019-04-11T17:56:04.874Z,98113.75
2019-04-11T17:58:34.255Z,98120.89
2019-04-11T18:01:05.454Z,98126.98
2019-04-11T18:03:35.409Z,98124.75
2019-04-11T18:06:04.965Z,98133.92
2019-04-11T18:08:34.391Z,98140.66
2019-04-11T18:11:06.433Z,98149.17
2019-04-11T18:13:36.114Z,98152.23
2019-04-11T18:16:05.514Z,98159.22
2019-04-11T18:18:35.878Z,98162.45
2019-04-11T18:21:07.324Z,98164.27
2019-04-11T18:23:37.047Z,98165.20
2019-04-11T18:26:06.654Z,98172.48
2019-04-11T18:28:36.121Z,98184.52
2019-04-11T18:31:05.656Z,98184.52
2019-04-11T18:33:35.042Z,98184.27
2019-04-11T18:36:04.867Z,98186.24
2019-04-11T18:38:34.350Z,98197.97
2019-04-11T18:41:03.738Z,98197.97
2019-04-11T18:43:33.230Z,98209.03
2019-04-11T18:46:02.733Z,98209.03
2019-04-11T18:48:32.163Z,98215.26
2019-04-11T18:51:01.675Z,98222.31
2019-04-11T18:53:31.101Z,98219.35
2019-04-11T18:56:01.743Z,98222.12
2019-04-11T18:58:33.751Z,98223.58
2019-04-11T19:01:02.795Z,98228.95
2019-04-11T19:03:36.309Z,98237.48
2019-04-11T19:06:03.590Z,98233.77
2019-04-11T19:08:33.194Z,98240.50
2019-04-11T19:11:02.803Z,98243.50
2019-04-11T19:13:32.193Z,98243.50
2019-04-11T19:16:01.819Z,98252.86
2019-04-11T19:18:31.223Z,98242.41
2019-04-11T19:21:00.643Z,98252.30
2019-04-11T19:23:30.071Z,98262.30
2019-04-11T19:25:59.633Z,98261.51
2019-04-11T19:28:29.109Z,98260.17
2019-04-11T19:30:58.507Z,98255.08
2019-04-11T19:33:27.930Z,98255.62
2019-04-11T19:35:57.423Z,98265.28
2019-04-11T19:38:31.822Z,98264.75
2019-04-11T19:41:01.212Z,98270.91
2019-04-11T19:43:30.908Z,98274.12
2019-04-11T19:46:00.303Z,98273.60
2019-04-11T19:48:29.657Z,98277.06
2019-04-11T19:50:59.524Z,98282.97
2019-04-11T19:53:32.868Z,98275.47
2019-04-11T19:56:14.348Z,98275.45
2019-04-11T19:58:43.756Z,98280.51
2019-04-11T20:01:13.157Z,98282.41
2019-04-11T20:03:42.576Z,98280.73
2019-04-11T20:06:13.291Z,98283.69
2019-04-11T20:08:43.014Z,98276.45
2019-04-11T20:11:12.449Z,98283.93
2019-04-11T20:13:41.861Z,98287.39
2019-04-11T20:16:12.511Z,98288.19
2019-04-11T20:18:51.052Z,98294.44
2019-04-11T20:21:13.703Z,98291.16
2019-04-11T20:23:43.263Z,98292.95
2019-04-11T20:26:12.668Z,98300.22
2019-04-11T20:28:42.035Z,98297.20
2019-04-11T20:31:11.434Z,98301.37
2019-04-11T20:33:40.843Z,98293.87
2019-04-11T20:36:11.146Z,98302.73
2019-04-11T20:38:40.907Z,98303.77
2019-04-11T20:41:10.362Z,98305.58
2019-04-11T20:43:39.764Z,98305.70
2019-04-11T20:46:09.237Z,98304.41
2019-04-11T20:48:38.660Z,98306.23
2019-04-11T20:51:08.121Z,98314.54
2019-04-11T20:53:37.731Z,98309.89
2019-04-11T20:56:09.547Z,98311.45
2019-04-11T20:58:39.629Z,98314.82
2019-04-11T21:01:09.744Z,98313.02
2019-04-11T21:03:39.105Z,98313.73
2019-04-11T21:06:08.536Z,98307.17
2019-04-11T21:08:37.894Z,98320.81
2019-04-11T21:11:07.309Z,98313.02
2019-04-11T21:13:38.405Z,98318.05
2019-04-11T21:16:07.846Z,98326.55
2019-04-11T21:18:37.228Z,98324.36
2019-04-11T21:21:06.686Z,98329.55
2019-04-11T21:23:36.055Z,98330.02
2019-04-11T21:26:06.177Z,98331.16
2019-04-11T21:28:35.573Z,98329.06
2019-04-11T21:31:04.952Z,98338.35
2019-04-11T21:33:35.054Z,98330.14
2019-04-11T21:36:04.821Z,98338.09
2019-04-11T21:38:34.217Z,98341.52
2019-04-11T21:41:05.950Z,98340.45
2019-04-11T21:43:36.281Z,98341.92
2019-04-11T21:46:06.851Z,98343.64
2019-04-11T21:48:36.997Z,98348.30
2019-04-11T21:51:08.757Z,98351.38
2019-04-11T21:53:37.607Z,98356.10
2019-04-11T21:56:07.003Z,98352.16
2019-04-11T21:58:36.380Z,98361.55
2019-04-11T22:01:10.438Z,98356.02
2019-04-11T22:03:39.853Z,98360.45
2019-04-11T22:06:09.348Z,98353.98
2019-04-11T22:08:38.940Z,98354.70
2019-04-11T22:11:10.118Z,98366.05
2019-04-11T22:13:40.438Z,98369.22
2019-04-11T22:16:13.493Z,98373.03
2019-04-11T22:18:44.289Z,98366.23
2019-04-11T22:21:13.002Z,98366.33
2019-04-11T22:23:49.041Z,98367.78
2019-04-11T22:26:17.102Z,98370.10
2019-04-11T22:28:46.501Z,98368.19
2019-04-11T22:31:15.879Z,98370.45
2019-04-11T22:34:04.221Z,98366.25
2019-04-11T22:36:33.597Z,98370.53
2019-04-11T22:39:03.099Z,98367.59
2019-04-11T22:41:32.471Z,98369.82
2019-04-11T22:44:01.952Z,98366.42
2019-04-11T22:46:31.379Z,98366.33
2019-04-11T22:49:00.794Z,98368.92
2019-04-11T22:51:30.205Z,98365.06
2019-04-11T22:54:00.774Z,98378.66
2019-04-11T22:56:30.209Z,98372.13
2019-04-11T22:58:59.596Z,98371.04
2019-04-11T23:01:28.983Z,98370.56
2019-04-11T23:04:00.214Z,98368.96
2019-04-11T23:06:29.822Z,98367.45
2019-04-11T23:08:59.244Z,98365.02
2019-04-11T23:11:28.613Z,98366.96
2019-04-11T23:13:58.782Z,98364.90
2019-04-11T23:16:28.150Z,98361.59
2019-04-11T23:18:57.511Z,98367.66
2019-04-11T23:21:26.913Z,98370.44
2019-04-11T23:23:56.300Z,98371.13
2019-04-11T23:26:25.690Z,98364.19
2019-04-11T23:28:55.154Z,98366.77
2019-04-11T23:31:24.552Z,98361.40
2019-04-11T23:33:53.920Z,98361.68
2019-04-11T23:36:23.344Z,98361.95
2019-04-11T23:38:53.713Z,98367.98
2019-04-11T23:41:23.178Z,98366.06
2019-04-11T23:43:52.578Z,98366.87
2019-04-11T23:46:22.130Z,98373.98
2019-04-11T23:48:54.735Z,98373.58
2019-04-11T23:51:25.392Z,98371.00
2019-04-11T23:53:53.727Z,98371.16
2019-04-11T23:56:23.111Z,98374.41
2019-04-11T23:58:52.586Z,98378.50
